createdAt,value
2022-11-27T00:01:36.828Z,6.90
2022-11-27T00:04:07.317Z,6.80
2022-11-27T00:06:56.700Z,6.80
2022-11-27T00:09:25.300Z,6.70
2022-11-27T00:11:53.853Z,6.90
2022-11-27T00:14:22.375Z,6.80
2022-11-27T00:16:50.916Z,6.70
2022-11-27T00:19:19.472Z,6.80
2022-11-27T00:21:47.995Z,6.90
2022-11-27T00:24:16.536Z,6.90
2022-11-27T00:26:46.649Z,6.70
2022-11-27T00:29:15.192Z,6.80
2022-11-27T00:31:43.780Z,6.90
2022-11-27T00:34:12.912Z,6.90
2022-11-27T00:36:46.551Z,6.80
2022-11-27T00:39:11.810Z,6.80
2022-11-27T00:41:40.704Z,7.00
2022-11-27T00:44:09.231Z,6.90
2022-11-27T00:46:37.888Z,6.90
2022-11-27T00:49:07.320Z,6.90
2022-11-27T00:51:36.389Z,7.30
2022-11-27T00:54:05.616Z,6.80
2022-11-27T00:56:37.034Z,6.90
2022-11-27T01:44:27.168Z,6.90
2022-11-27T01:47:01.683Z,6.80
2022-11-27T01:49:33.226Z,7.10
2022-11-27T01:54:43.754Z,7.00
2022-11-27T01:57:15.385Z,6.70
2022-11-27T01:59:45.048Z,6.90
2022-11-27T02:09:40.290Z,6.10
2022-11-27T02:12:22.385Z,7.00
2022-11-27T02:15:05.704Z,7.00
2022-11-27T02:17:59.654Z,7.00
2022-11-27T04:08:49.566Z,6.40
2022-11-27T04:26:09.403Z,6.40
2022-11-27T08:06:29.175Z,6.70
2022-11-27T08:08:57.952Z,7.70
2022-11-27T08:11:34.192Z,7.80
2022-11-27T08:14:07.583Z,7.80
2022-11-27T08:16:37.150Z,7.90
2022-11-27T08:19:05.739Z,7.90
2022-11-27T08:21:34.320Z,7.70
2022-11-27T08:24:02.911Z,7.90
2022-11-27T08:26:31.450Z,8.00
2022-11-27T08:28:59.990Z,8.10
2022-11-27T08:31:28.543Z,8.20
2022-11-27T08:34:01.444Z,8.30
2022-11-27T08:36:29.971Z,8.30
2022-11-27T08:41:26.743Z,8.40
2022-11-27T08:43:55.270Z,8.50
2022-11-27T08:46:23.866Z,9.00
2022-11-27T08:48:52.457Z,8.70
2022-11-27T08:51:21.067Z,8.80
2022-11-27T08:53:49.609Z,8.80
2022-11-27T08:56:23.883Z,8.80
2022-11-27T08:58:52.828Z,8.90
2022-11-27T09:01:42.240Z,8.90
2022-11-27T09:04:11.014Z,8.90
2022-11-27T09:06:42.305Z,8.90
2022-11-27T09:09:11.001Z,9.10
2022-11-27T09:11:39.677Z,8.90
2022-11-27T09:14:08.762Z,8.40
2022-11-27T09:16:38.529Z,9.00
2022-11-27T09:19:07.059Z,9.00
2022-11-27T09:21:35.601Z,8.90
2022-11-27T09:24:04.136Z,9.10
2022-11-27T09:26:32.688Z,9.00
2022-11-27T09:31:29.497Z,9.20
2022-11-27T09:36:28.732Z,9.30
2022-11-27T09:42:06.464Z,9.60
2022-11-27T09:44:48.066Z,9.80
2022-11-27T09:47:41.879Z,10.00
2022-11-27T09:50:28.762Z,9.90
2022-11-27T09:53:22.287Z,10.10
2022-11-27T09:55:56.007Z,10.00
2022-11-27T09:58:38.471Z,9.90
2022-11-27T10:01:18.758Z,9.20
2022-11-27T10:03:47.892Z,9.80
2022-11-27T10:06:51.568Z,10.10
2022-11-27T10:09:54.982Z,10.00
2022-11-27T10:12:32.521Z,10.20
2022-11-27T10:15:06.895Z,9.90
2022-11-27T10:20:27.186Z,10.00
2022-11-27T10:23:20.926Z,10.00
2022-11-27T10:26:13.259Z,10.10
2022-11-27T10:28:50.924Z,10.10
2022-11-27T10:31:50.213Z,10.10
2022-11-27T10:34:33.853Z,10.00
2022-11-27T10:37:05.706Z,9.30
2022-11-27T10:39:37.330Z,10.10
2022-11-27T10:42:11.378Z,10.10
2022-11-27T10:44:48.762Z,10.10
2022-11-27T10:47:19.144Z,10.10
2022-11-27T10:49:48.637Z,10.20
2022-11-27T10:52:19.785Z,10.00
2022-11-27T10:55:03.725Z,10.40
2022-11-27T10:57:41.093Z,10.10
2022-11-27T11:00:17.690Z,10.40
2022-11-27T11:02:48.943Z,10.00
2022-11-27T11:10:32.166Z,10.20
2022-11-27T11:13:11.266Z,10.20
2022-11-27T11:18:39.109Z,10.30
2022-11-27T11:21:07.909Z,10.30
2022-11-27T11:23:42.051Z,10.70
2022-11-27T11:26:25.620Z,10.20
2022-11-27T11:28:57.531Z,10.10
2022-11-27T11:31:35.165Z,10.20
2022-11-27T11:34:07.773Z,10.20
2022-11-27T11:36:36.022Z,10.00
2022-11-27T11:39:04.672Z,9.90
2022-11-27T11:41:40.184Z,9.80
2022-11-27T11:44:11.794Z,9.70
2022-11-27T11:46:40.490Z,9.40
2022-11-27T11:49:18.027Z,9.80
2022-11-27T11:52:07.423Z,9.90
2022-11-27T11:54:51.093Z,10.00
2022-11-27T11:57:54.615Z,10.10
2022-11-27T12:00:30.805Z,10.20
2022-11-27T12:03:24.991Z,10.10
2022-11-27T12:06:27.047Z,10.50
2022-11-27T12:09:19.588Z,10.70
2022-11-27T12:12:11.619Z,9.90
2022-11-27T12:15:03.772Z,11.10
2022-11-27T12:17:50.880Z,10.30
2022-11-27T12:20:39.040Z,10.50
2022-11-27T12:23:16.224Z,10.10
2022-11-27T12:25:48.200Z,10.70
2022-11-27T12:28:34.825Z,10.70
2022-11-27T12:31:30.900Z,10.80
2022-11-27T12:37:04.405Z,10.80
2022-11-27T12:39:36.355Z,10.90
2022-11-27T12:42:23.286Z,11.00
2022-11-27T12:47:40.015Z,11.10
2022-11-27T12:50:39.098Z,11.20
2022-11-27T12:53:11.622Z,11.30
2022-11-27T12:55:43.629Z,11.30
2022-11-27T12:58:28.341Z,11.30
2022-11-27T13:01:00.123Z,11.30
2022-11-27T13:03:46.989Z,11.60
2022-11-27T13:06:21.343Z,11.30
2022-11-27T13:09:07.623Z,11.50
2022-11-27T13:11:38.974Z,11.50
2022-11-27T13:14:12.989Z,11.60
2022-11-27T13:16:47.214Z,11.60
2022-11-27T13:19:38.009Z,11.70
2022-11-27T13:22:09.604Z,11.70
2022-11-27T13:24:39.145Z,11.70
2022-11-27T13:27:11.072Z,11.40
2022-11-27T13:29:42.778Z,11.70
2022-11-27T13:32:32.180Z,11.20
2022-11-27T13:35:03.781Z,11.60
2022-11-27T13:37:38.113Z,11.60
2022-11-27T13:40:21.770Z,11.60
2022-11-27T13:42:56.514Z,11.60
2022-11-27T13:45:30.945Z,11.60
2022-11-27T13:48:02.427Z,11.60
2022-11-27T13:50:31.842Z,11.40
2022-11-27T13:53:07.307Z,11.50
2022-11-27T13:55:38.490Z,11.40
2022-11-27T13:58:08.518Z,11.50
2022-11-27T14:00:46.079Z,11.50
2022-11-27T14:03:29.606Z,11.40
2022-11-27T14:05:59.129Z,11.40
2022-11-27T14:08:35.914Z,11.40
2022-11-27T14:11:26.979Z,11.30
2022-11-27T14:13:55.944Z,11.30
2022-11-27T14:16:38.756Z,11.60
2022-11-27T14:19:45.960Z,11.50
2022-11-27T14:25:31.152Z,11.30
2022-11-27T14:28:17.955Z,11.30
2022-11-27T14:30:49.594Z,11.20
2022-11-27T14:33:47.444Z,11.20
2022-11-27T14:36:06.642Z,11.30
2022-11-27T14:38:36.328Z,11.30
2022-11-27T14:41:13.774Z,11.40
2022-11-27T14:43:42.387Z,11.30
2022-11-27T14:46:20.233Z,11.20
2022-11-27T14:48:57.126Z,11.00
2022-11-27T14:51:28.744Z,11.00
2022-11-27T14:54:03.107Z,10.90
2022-11-27T14:56:40.568Z,10.80
2022-11-27T14:59:15.117Z,11.00
2022-11-27T15:01:44.151Z,10.90
2022-11-27T15:04:27.830Z,10.70
2022-11-27T15:09:32.080Z,10.60
2022-11-27T15:12:20.290Z,10.40
2022-11-27T15:25:03.186Z,10.30
2022-11-27T15:27:46.392Z,9.90
2022-11-27T15:30:36.009Z,9.70
2022-11-27T15:33:04.608Z,9.60
2022-11-27T15:35:34.928Z,9.50
2022-11-27T15:38:11.288Z,9.60
2022-11-27T15:40:41.748Z,9.30
2022-11-27T15:43:15.349Z,9.30
2022-11-27T15:45:45.706Z,9.30
2022-11-27T15:48:16.814Z,9.20
2022-11-27T15:50:51.362Z,9.40
2022-11-27T15:53:16.107Z,9.20
2022-11-27T15:55:44.662Z,9.20
2022-11-27T15:58:13.199Z,9.20
2022-11-27T16:00:41.792Z,9.30
2022-11-27T16:03:10.376Z,9.40
2022-11-27T16:05:38.937Z,9.50
2022-11-27T16:08:09.233Z,9.90
2022-11-27T16:10:42.236Z,9.60
2022-11-27T16:13:10.834Z,9.60
2022-11-27T16:15:39.928Z,9.70
2022-11-27T16:18:29.403Z,9.70
2022-11-27T16:20:59.563Z,9.70
2022-11-27T16:23:28.102Z,9.70
2022-11-27T16:25:56.643Z,9.70
2022-11-27T16:28:30.571Z,9.70
2022-11-27T16:31:00.937Z,9.70
2022-11-27T16:33:33.775Z,9.70
2022-11-27T16:36:22.122Z,9.80
2022-11-27T16:38:54.078Z,9.70
2022-11-27T16:41:23.443Z,9.60
2022-11-27T16:46:32.420Z,9.70
2022-11-27T16:49:01.637Z,9.40
2022-11-27T16:51:34.134Z,9.60
2022-11-27T16:54:05.325Z,9.70
2022-11-27T16:56:35.409Z,9.70
2022-11-27T17:01:36.026Z,9.70
2022-11-27T17:04:09.947Z,9.60
2022-11-27T17:06:39.906Z,9.80
2022-11-27T17:09:09.451Z,9.80
2022-11-27T17:11:40.885Z,9.60
2022-11-27T17:14:10.651Z,9.60
2022-11-27T17:16:41.590Z,9.70
2022-11-27T17:19:14.697Z,9.40
2022-11-27T17:21:43.486Z,9.70
2022-11-27T17:24:15.932Z,9.50
2022-11-27T17:26:45.585Z,9.60
2022-11-27T17:29:16.759Z,9.70
2022-11-27T17:31:45.506Z,9.70
2022-11-27T17:34:14.823Z,9.70
2022-11-27T17:36:45.006Z,9.60
2022-11-27T17:39:15.678Z,9.40
2022-11-27T17:41:44.990Z,9.60
2022-11-27T17:44:13.909Z,9.60
2022-11-27T17:46:44.242Z,9.60
2022-11-27T17:49:12.833Z,9.50
2022-11-27T17:51:41.411Z,9.60
2022-11-27T17:54:11.504Z,9.60
2022-11-27T17:56:40.120Z,9.60
2022-11-27T17:59:09.254Z,9.40
2022-11-27T18:04:06.350Z,9.30
2022-11-27T18:06:36.154Z,9.20
2022-11-27T18:09:05.396Z,9.30
2022-11-27T18:11:34.487Z,9.30
2022-11-27T18:14:03.767Z,9.30
2022-11-27T18:16:42.836Z,9.10
2022-11-27T18:19:12.252Z,9.50
2022-11-27T18:21:41.045Z,9.30
2022-11-27T18:24:25.428Z,9.30
2022-11-27T18:29:13.309Z,9.20
2022-11-27T18:31:41.937Z,9.00
2022-11-27T18:34:11.185Z,9.10
2022-11-27T18:39:07.935Z,9.10
2022-11-27T18:41:37.190Z,9.10
2022-11-27T18:44:05.811Z,9.20
2022-11-27T18:46:34.405Z,9.20
2022-11-27T18:49:03.003Z,9.30
2022-11-27T18:51:31.537Z,9.20
2022-11-27T18:54:00.156Z,9.30
2022-11-27T18:56:31.890Z,9.30
2022-11-27T18:59:05.036Z,9.10
2022-11-27T19:01:41.302Z,10.00
2022-11-27T19:04:06.740Z,9.30
2022-11-27T19:06:37.434Z,9.00
2022-11-27T19:09:06.323Z,10.40
2022-11-27T19:11:35.861Z,8.90
2022-11-27T19:14:05.649Z,9.00
2022-11-27T19:16:41.460Z,9.00
2022-11-27T19:19:34.602Z,9.00
2022-11-27T19:21:40.742Z,8.90
2022-11-27T19:24:10.691Z,9.00
2022-11-27T19:26:39.249Z,9.00
2022-11-27T19:29:10.899Z,9.00
2022-11-27T19:31:41.555Z,9.00
2022-11-27T19:34:14.158Z,9.00
2022-11-27T19:36:43.182Z,9.10
2022-11-27T19:39:15.751Z,9.10
2022-11-27T19:41:43.862Z,9.00
2022-11-27T19:44:14.110Z,9.00
2022-11-27T19:46:44.729Z,9.20
2022-11-27T19:49:18.655Z,9.10
2022-11-27T19:51:47.717Z,9.10
2022-11-27T19:54:18.436Z,8.90
2022-11-27T19:56:46.969Z,9.10
2022-11-27T19:59:15.496Z,9.40
2022-11-27T20:01:44.104Z,8.90
2022-11-27T20:04:15.175Z,9.20
2022-11-27T20:06:43.729Z,9.20
2022-11-27T20:09:13.985Z,9.20
2022-11-27T20:11:42.621Z,8.90
2022-11-27T20:14:12.044Z,9.30
2022-11-27T20:16:40.800Z,9.10
2022-11-27T20:19:09.491Z,9.20
2022-11-27T20:21:39.975Z,9.10
2022-11-27T20:24:08.580Z,9.10
2022-11-27T20:26:42.421Z,9.60
2022-11-27T20:29:07.655Z,9.20
2022-11-27T20:44:02.719Z,9.30
2022-11-27T20:49:00.346Z,8.90
2022-11-27T21:19:20.262Z,7.90
2022-11-27T21:21:49.231Z,8.50
2022-11-27T21:24:18.794Z,7.90
2022-11-27T22:19:10.108Z,7.90
2022-11-27T22:21:38.678Z,7.90
